Time;durP1;ratioP1;P1;durP2;ratioP2;P2;SDS_P1;SDS_P2;PMS_P1;PMS_P2;Temp;Humidity;BMP_temperature;BMP_pressure;BME280_temperature;BME280_humidity;BME280_pressure;Samples;Min_cycle;Max_cycle;Signal;HPM_P1;HPM_P2
2023/01/15 00:01:23;;;;;;;21.48;10.52;;;;;;;-0.28;62.79;100493.47;5074829;28;20033;-52
2023/01/15 00:03:49;;;;;;;21.55;10.25;;;;;;;-0.24;62.58;100494.28;5074566;28;20028;-56
2023/01/15 00:06:15;;;;;;;16.95;10.35;;;;;;;-0.27;62.71;100508.38;5075411;28;20036;-55
2023/01/15 00:08:41;;;;;;;19.83;9.15;;;;;;;-0.21;62.69;100517.88;5075217;28;20146;-56
2023/01/15 00:11:07;;;;;;;17.55;9.20;;;;;;;-0.26;62.51;100514.50;5075301;28;20376;-53
2023/01/15 00:13:32;;;;;;;18.67;10.13;;;;;;;-0.34;62.53;100505.03;5075690;28;20098;-52
2023/01/15 00:16:02;;;;;;;19.88;10.43;;;;;;;-0.37;63.00;100496.34;5075410;28;20407;-53
2023/01/15 00:18:28;;;;;;;18.70;10.20;;;;;;;-0.41;62.69;100484.19;5075009;28;20032;-54
2023/01/15 00:21:01;;;;;;;22.17;11.05;;;;;;;-0.30;62.87;100490.03;5075421;28;20067;-54
2023/01/15 00:29:00;;;;;;;21.05;9.48;;;;;;;-0.28;62.76;100511.91;5055343;28;20041;-60
2023/01/15 00:31:27;;;;;;;19.27;9.82;;;;;;;-0.28;62.81;100513.69;5055204;28;20029;-51
2023/01/15 00:33:53;;;;;;;23.00;11.15;;;;;;;-0.30;62.53;100503.19;5054895;28;20051;-52
2023/01/15 00:36:19;;;;;;;18.95;10.07;;;;;;;-0.33;62.56;100498.00;5055168;28;20408;-54
2023/01/15 00:38:44;;;;;;;18.38;9.07;;;;;;;-0.23;62.55;100499.50;5073102;28;20024;-57
2023/01/15 00:41:09;;;;;;;19.10;9.13;;;;;;;-0.28;62.09;100482.94;5073779;28;20040;-53
2023/01/15 00:43:35;;;;;;;19.23;10.18;;;;;;;-0.31;62.60;100472.50;5075262;28;20081;-56
2023/01/15 00:46:01;;;;;;;22.08;9.82;;;;;;;-0.32;62.86;100486.56;5074734;28;20093;-57
2023/01/15 00:48:26;;;;;;;20.13;10.10;;;;;;;-0.54;62.91;100444.16;5073731;28;20460;-56
2023/01/15 00:50:52;;;;;;;25.42;9.75;;;;;;;-0.34;63.15;100484.00;5074566;28;20028;-54
2023/01/15 00:53:17;;;;;;;22.77;10.25;;;;;;;-0.36;62.71;100474.41;5075121;28;20039;-56
2023/01/15 00:55:43;;;;;;;18.17;10.32;;;;;;;-0.32;62.63;100470.78;5074514;28;20037;-55
2023/01/15 00:58:08;;;;;;;19.55;10.25;;;;;;;-0.30;62.51;100479.50;5074076;28;20103;-53
2023/01/15 01:00:34;;;;;;;18.05;9.98;;;;;;;-0.29;62.54;100470.69;5074968;28;20040;-51
2023/01/15 01:02:59;;;;;;;17.27;10.02;;;;;;;-0.33;62.95;100471.69;5075058;28;20032;-54
2023/01/15 01:05:25;;;;;;;21.17;10.57;;;;;;;-0.31;62.84;100472.50;5074033;28;20035;-53
2023/01/15 01:07:51;;;;;;;18.52;9.77;;;;;;;-0.51;62.86;100433.56;5073934;28;20082;-58
2023/01/15 01:10:16;;;;;;;21.27;10.23;;;;;;;-0.31;63.30;100461.97;5074666;28;20040;-53
2023/01/15 01:12:42;;;;;;;22.95;9.98;;;;;;;-0.50;62.58;100436.13;5074663;28;20373;-55
2023/01/15 01:15:08;;;;;;;21.30;9.95;;;;;;;-0.26;62.78;100469.78;5073827;28;20577;-52
2023/01/15 01:17:37;;;;;;;23.58;10.32;;;;;;;-0.28;63.14;100464.53;5073710;28;20032;-56
2023/01/15 01:20:03;;;;;;;19.40;9.75;;;;;;;-0.34;63.05;100449.78;5074598;28;20072;-56
2023/01/15 01:22:29;;;;;;;21.75;10.18;;;;;;;-0.48;62.99;100425.56;5074623;28;20376;-55
2023/01/15 01:24:54;;;;;;;21.52;9.95;;;;;;;-0.27;63.02;100457.50;5073998;28;20037;-52
2023/01/15 01:27:20;;;;;;;21.00;9.30;;;;;;;-0.23;62.69;100460.03;5073255;28;20100;-53
2023/01/15 01:29:45;;;;;;;20.75;10.35;;;;;;;-0.52;62.64;100416.88;5074148;28;20366;-54
2023/01/15 01:32:12;;;;;;;17.60;9.43;;;;;;;-0.26;62.54;100454.81;5074382;28;20056;-51
2023/01/15 01:34:38;;;;;;;18.83;9.98;;;;;;;-0.25;62.76;100461.81;5073738;28;20374;-54
2023/01/15 01:37:03;;;;;;;19.08;9.23;;;;;;;-0.21;62.80;100457.34;5073735;28;20166;-52
2023/01/15 01:39:29;;;;;;;18.77;9.73;;;;;;;-0.26;62.81;100465.34;5074223;28;20108;-55
2023/01/15 01:41:54;;;;;;;25.85;9.73;;;;;;;-0.28;62.48;100471.56;5073714;28;20102;-52
2023/01/15 01:44:32;;;;;;;23.80;10.40;;;;;;;-0.22;62.83;100456.50;5073433;28;20445;-51
2023/01/15 01:47:00;;;;;;;17.25;10.43;;;;;;;-0.28;62.34;100456.63;5073218;28;20059;-50
2023/01/15 01:49:25;;;;;;;20.55;10.40;;;;;;;-0.39;62.49;100451.66;5071731;28;20043;-54
2023/01/15 01:52:00;;;;;;;20.63;9.90;;;;;;;-0.32;63.18;100450.59;5073561;28;20028;-55
2023/01/15 01:54:29;;;;;;;24.48;10.50;;;;;;;-0.34;62.74;100462.06;5073396;28;20048;-51
2023/01/15 01:56:55;;;;;;;19.88;9.52;;;;;;;-0.38;62.63;100463.03;5072885;28;20055;-52
2023/01/15 01:59:23;;;;;;;24.23;10.15;;;;;;;-0.32;62.61;100468.16;5073126;28;20086;-55
2023/01/15 02:01:48;;;;;;;19.83;11.10;;;;;;;-0.35;62.64;100448.06;5072997;28;20048;-55
2023/01/15 02:04:15;;;;;;;18.17;9.77;;;;;;;-0.36;62.94;100463.88;5073127;28;20373;-52
2023/01/15 02:06:41;;;;;;;20.08;9.70;;;;;;;-0.53;62.78;100407.28;5072822;28;20348;-56
2023/01/15 02:09:07;;;;;;;23.60;10.27;;;;;;;-0.24;62.61;100447.78;5072737;28;20107;-57
2023/01/15 02:11:33;;;;;;;21.58;10.38;;;;;;;-0.24;62.48;100447.78;5073321;28;20115;-54
2023/01/15 02:14:14;;;;;;;20.65;9.43;;;;;;;-0.30;62.70;100432.13;5072907;28;20119;-55
2023/01/15 02:17:17;;;;;;;23.13;9.35;;;;;;;-0.21;62.88;100445.06;5072560;28;20062;-55
2023/01/15 02:19:46;;;;;;;20.50;9.18;;;;;;;-0.28;62.72;100443.47;5071176;28;20036;-53
2023/01/15 02:22:20;;;;;;;18.85;9.32;;;;;;;-0.24;62.94;100452.16;5072568;28;20081;-53
2023/01/15 02:25:03;;;;;;;19.45;10.18;;;;;;;-0.27;63.17;100437.31;5073051;28;20040;-57
2023/01/15 02:27:29;;;;;;;20.63;10.43;;;;;;;-0.34;63.00;100431.38;5071817;28;20345;-51
2023/01/15 02:30:00;;;;;;;19.25;9.60;;;;;;;-0.46;63.00;100414.13;5072715;28;20109;-55
2023/01/15 02:32:35;;;;;;;20.67;10.25;;;;;;;-0.30;62.84;100443.53;5072742;28;20033;-55
2023/01/15 02:35:04;;;;;;;;;;;;;;;-0.07;62.90;100446.47;5073129;28;20048;-56
2023/01/15 02:37:36;;;;;;;20.67;9.85;;;;;;;-0.22;62.76;100443.34;5072929;28;19916;-56
2023/01/15 02:40:04;;;;;;;19.70;9.77;;;;;;;-0.26;62.67;100441.66;5072577;28;20025;-52
2023/01/15 02:42:31;;;;;;;22.25;9.65;;;;;;;-0.29;62.83;100436.50;5072642;28;20033;-54
2023/01/15 02:44:59;;;;;;;20.77;9.38;;;;;;;-0.24;62.80;100441.66;5072515;28;20511;-58
2023/01/15 02:47:34;;;;;;;26.35;10.30;;;;;;;-0.22;62.56;100435.44;5072861;28;20116;-53
2023/01/15 02:50:04;;;;;;;22.42;9.70;;;;;;;-0.19;62.62;100430.09;5072406;28;20036;-53
2023/01/15 02:52:35;;;;;;;19.15;9.05;;;;;;;-0.48;62.91;100389.63;5071963;28;20064;-54
2023/01/15 02:55:22;;;;;;;21.83;8.73;;;;;;;-0.21;62.88;100437.19;5072539;28;20058;-56
2023/01/15 02:57:50;;;;;;;22.38;9.27;;;;;;;-0.33;63.03;100440.09;5072800;28;20192;-56
2023/01/15 03:00:19;;;;;;;29.48;9.73;;;;;;;-0.28;62.93;100451.38;5070453;28;20067;-57
2023/01/15 03:03:06;;;;;;;24.08;9.90;;;;;;;-0.26;62.73;100449.56;5072021;28;20090;-59
2023/01/15 03:05:38;;;;;;;18.35;9.77;;;;;;;-0.30;62.84;100448.81;5071728;28;20094;-56
2023/01/15 03:08:07;;;;;;;20.52;9.60;;;;;;;-0.30;62.89;100454.06;5072238;28;20113;-57
2023/01/15 03:10:44;;;;;;;25.08;9.88;;;;;;;-0.27;63.04;100447.00;5051938;28;20041;-56
2023/01/15 03:13:16;;;;;;;19.63;9.82;;;;;;;-0.31;62.86;100446.19;5052239;28;20125;-63
2023/01/15 03:18:43;;;;;;;26.88;9.70;;;;;;;-0.26;62.99;100449.56;5070898;28;20074;-59
2023/01/15 03:21:12;;;;;;;28.75;10.75;;;;;;;-0.35;63.14;100440.16;5072500;28;20082;-54
2023/01/15 03:23:44;;;;;;;22.05;10.52;;;;;;;-0.31;62.92;100456.72;5072116;28;20101;-57
2023/01/15 03:26:09;;;;;;;22.58;10.10;;;;;;;-0.24;62.95;100449.53;5073003;28;20032;-60
2023/01/15 03:28:38;;;;;;;20.58;10.40;;;;;;;-0.27;63.26;100476.78;5071930;28;20028;-58
2023/01/15 03:31:04;;;;;;;23.85;9.65;;;;;;;-0.37;62.84;100443.72;5071973;28;20082;-59
2023/01/15 03:33:30;;;;;;;27.73;10.68;;;;;;;-0.31;63.07;100441.81;5072159;28;20036;-57
2023/01/15 03:35:58;;;;;;;23.17;11.32;;;;;;;-0.31;63.06;100449.69;5072511;28;20082;-55
2023/01/15 03:38:35;;;;;;;21.50;9.65;;;;;;;-0.23;62.96;100459.16;5072014;28;20044;-57
2023/01/15 03:41:12;;;;;;;17.80;10.18;;;;;;;-0.24;63.26;100446.91;5071611;28;20033;-56
2023/01/15 03:43:41;;;;;;;22.33;10.13;;;;;;;-0.30;63.21;100443.53;5072145;28;20036;-58
2023/01/15 03:46:31;;;;;;;21.73;10.55;;;;;;;-0.22;63.63;100453.00;5072782;28;20078;-57
2023/01/15 03:49:20;;;;;;;21.95;9.93;;;;;;;-0.20;63.04;100454.69;5070763;28;20436;-57
2023/01/15 03:52:07;;;;;;;21.60;9.98;;;;;;;-0.17;62.90;100454.59;5071793;28;20103;-58
2023/01/15 03:54:48;;;;;;;24.15;10.18;;;;;;;-0.21;63.37;100452.09;5071641;28;20036;-55
2023/01/15 03:57:40;;;;;;;21.90;10.05;;;;;;;-0.16;63.13;100456.34;5071294;28;20035;-58
2023/01/15 04:00:19;;;;;;;19.40;9.60;;;;;;;-0.35;63.08;100423.50;5068731;28;20060;-55
2023/01/15 04:02:47;;;;;;;19.17;10.18;;;;;;;-0.26;63.21;100451.34;5071001;28;20031;-57
2023/01/15 04:05:14;;;;;;;21.77;10.73;;;;;;;-0.26;63.45;100448.72;5071653;28;20024;-65
2023/01/15 04:07:40;;;;;;;19.48;9.27;;;;;;;-0.26;63.34;100446.94;5071885;28;20032;-54
2023/01/15 04:10:08;;;;;;;22.85;10.65;;;;;;;-0.28;63.37;100440.84;5071513;28;20514;-56
2023/01/15 04:12:33;;;;;;;24.13;10.70;;;;;;;-0.23;63.13;100454.78;5073321;28;20044;-52
2023/01/15 04:14:59;;;;;;;23.95;10.30;;;;;;;-0.24;63.89;100462.69;5075272;28;20180;-51
2023/01/15 04:17:24;;;;;;;18.23;9.98;;;;;;;-0.22;63.60;100456.50;5075684;28;20032;-53
2023/01/15 04:19:50;;;;;;;27.50;10.73;;;;;;;-0.29;63.99;100441.75;5075415;28;20020;-54
2023/01/15 04:22:16;;;;;;;27.40;10.02;;;;;;;-0.23;63.30;100460.03;5074936;28;20055;-58
2023/01/15 04:24:41;;;;;;;21.00;10.13;;;;;;;-0.23;63.61;100460.03;5075878;28;20048;-59
2023/01/15 04:27:07;;;;;;;27.33;10.65;;;;;;;-0.25;63.84;100464.44;5075400;28;20128;-63
2023/01/15 04:29:32;;;;;;;26.48;10.75;;;;;;;-0.29;63.82;100449.66;5074810;28;20020;-56
2023/01/15 04:31:58;;;;;;;24.17;10.57;;;;;;;-0.23;63.90;100460.03;5074925;28;20068;-53
2023/01/15 04:34:25;;;;;;;20.38;10.18;;;;;;;-0.28;64.36;100479.47;5075495;28;20056;-56
2023/01/15 04:36:51;;;;;;;22.60;10.73;;;;;;;-0.33;64.56;100458.53;5074918;28;20342;-52
2023/01/15 04:39:16;;;;;;;27.08;10.73;;;;;;;-0.36;65.04;100454.22;5074509;28;20090;-57
2023/01/15 04:44:28;;;;;;;27.27;10.32;;;;;;;-0.28;64.80;100453.16;5075170;28;20086;-56
2023/01/15 04:46:54;;;;;;;25.90;11.15;;;;;;;-0.34;65.30;100446.28;5074717;28;20079;-59
2023/01/15 04:49:19;;;;;;;29.40;11.10;;;;;;;-0.42;65.44;100453.50;5074355;28;20433;-57
2023/01/15 04:51:45;;;;;;;28.45;10.77;;;;;;;-0.38;65.28;100457.78;5075380;28;20032;-65
2023/01/15 04:54:13;;;;;;;24.77;10.55;;;;;;;-0.36;65.32;100464.75;5057420;28;20033;-54
2023/01/15 04:56:42;;;;;;;23.98;11.13;;;;;;;-0.37;65.42;100470.88;5074907;28;20107;-56
2023/01/15 04:59:08;;;;;;;22.65;10.57;;;;;;;-0.39;65.13;100456.06;5074236;28;20033;-56
2023/01/15 05:01:33;;;;;;;23.92;10.90;;;;;;;-0.41;65.19;100460.50;5074638;28;20024;-58
2023/01/15 05:04:00;;;;;;;24.63;11.52;;;;;;;-0.47;65.85;100453.63;5074708;28;20031;-57
2023/01/15 05:06:25;;;;;;;28.05;10.48;;;;;;;-0.61;65.70;100411.88;5074317;28;20024;-54
2023/01/15 05:08:51;;;;;;;26.98;10.15;;;;;;;-0.40;65.94;100447.28;5074084;28;20024;-53
2023/01/15 05:11:17;;;;;;;18.23;10.27;;;;;;;-0.41;66.25;100448.19;5074775;28;20036;-57
2023/01/15 05:13:42;;;;;;;28.42;10.63;;;;;;;-0.41;66.16;100434.19;5074131;28;20083;-59
2023/01/15 05:16:10;;;;;;;26.80;10.98;;;;;;;-0.38;66.71;100444.63;5074008;28;20108;-58
2023/01/15 05:18:36;;;;;;;26.65;11.27;;;;;;;-0.59;66.42;100402.19;5073532;28;20028;-59
2023/01/15 05:21:02;;;;;;;29.90;11.48;;;;;;;-0.36;65.94;100437.56;5074584;28;20029;-57
2023/01/15 05:23:27;;;;;;;21.33;10.30;;;;;;;-0.32;66.42;100447.09;5074492;28;20028;-56
2023/01/15 05:25:53;;;;;;;27.73;10.60;;;;;;;-0.35;66.08;100434.91;5073876;28;20107;-53
2023/01/15 05:28:18;;;;;;;24.48;10.70;;;;;;;-0.22;65.85;100443.34;5073131;28;20064;-57
2023/01/15 05:30:44;;;;;;;32.75;11.30;;;;;;;-0.24;65.57;100453.03;5074294;28;20032;-58
2023/01/15 05:33:09;;;;;;;27.15;10.70;;;;;;;-0.31;66.24;100447.06;5074606;28;20032;-58
2023/01/15 05:35:35;;;;;;;24.05;10.40;;;;;;;-0.30;66.54;100443.53;5073812;28;20048;-52
2023/01/15 05:38:02;;;;;;;22.95;9.65;;;;;;;-0.26;65.99;100441.66;5073864;28;20423;-53
2023/01/15 05:40:28;;;;;;;28.30;10.70;;;;;;;-0.28;66.06;100446.09;5073648;28;20032;-55
2023/01/15 05:42:53;;;;;;;28.40;10.82;;;;;;;-0.28;65.97;100435.59;5073910;28;20041;-55
2023/01/15 05:45:19;;;;;;;24.10;10.82;;;;;;;-0.28;66.42;100440.84;5073173;28;20056;-60
2023/01/15 05:47:44;;;;;;;18.17;9.43;;;;;;;-0.30;66.33;100432.13;5073562;28;20431;-57
2023/01/15 05:50:10;;;;;;;29.10;10.18;;;;;;;-0.31;66.34;100435.66;5073413;28;20036;-51
2023/01/15 05:52:35;;;;;;;33.10;10.65;;;;;;;-0.28;66.29;100435.59;5073358;28;20040;-56
2023/01/15 05:55:01;;;;;;;22.15;10.10;;;;;;;-0.23;66.35;100419.69;5073775;28;20029;-60
2023/01/15 05:57:28;;;;;;;26.23;10.18;;;;;;;-0.25;66.33;100435.50;5072474;28;20028;-57
2023/01/15 05:59:55;;;;;;;26.25;10.68;;;;;;;-0.22;65.73;100435.44;5073320;28;20028;-57
2023/01/15 06:02:20;;;;;;;27.05;10.15;;;;;;;-0.23;65.78;100427.59;5073172;28;20039;-56
2023/01/15 06:04:46;;;;;;;23.92;10.65;;;;;;;-0.21;65.62;100431.91;5073249;28;20095;-55
2023/01/15 06:07:11;;;;;;;33.17;10.18;;;;;;;-0.38;65.46;100382.34;5073324;28;20139;-49
2023/01/15 06:09:37;;;;;;;26.92;11.07;;;;;;;-0.22;65.13;100424.91;5072412;28;20020;-49
2023/01/15 06:12:02;;;;;;;28.73;11.48;;;;;;;-0.16;64.91;100434.41;5073076;28;20445;-48
2023/01/15 06:14:28;;;;;;;27.58;11.00;;;;;;;-0.18;65.07;100437.09;5073160;28;20406;-64
2023/01/15 06:16:53;;;;;;;29.95;11.13;;;;;;;-0.11;64.81;100431.66;5072522;28;20353;-55
2023/01/15 06:19:19;;;;;;;28.60;12.00;;;;;;;-0.12;64.77;100435.19;5072591;28;20376;-48
2023/01/15 06:21:44;;;;;;;30.52;11.10;;;;;;;-0.13;65.33;100436.09;5073179;28;20032;-65
2023/01/15 06:24:10;;;;;;;28.23;10.73;;;;;;;-0.05;64.83;100442.00;5072664;28;20805;-59
2023/01/15 06:26:38;;;;;;;27.88;11.30;;;;;;;-0.05;64.41;100436.75;5054428;28;20033;-56
2023/01/15 06:29:03;;;;;;;27.27;10.20;;;;;;;-0.02;64.59;100439.28;5072155;28;20033;-57
2023/01/15 06:31:28;;;;;;;32.40;11.80;;;;;;;-0.02;64.61;100457.72;5072927;28;20183;-56
2023/01/15 06:33:54;;;;;;;26.42;10.13;;;;;;;0.00;64.25;100458.56;5072683;28;20052;-55
2023/01/15 06:36:22;;;;;;;29.95;10.77;;;;;;;0.03;64.13;100455.84;5072447;28;20032;-60
2023/01/15 06:38:49;;;;;;;33.92;11.25;;;;;;;0.04;64.05;100464.59;5072986;28;20048;-53
2023/01/15 06:49:35;;;;;;;29.83;11.45;;;;;;;-0.03;63.95;100453.38;5072431;28;20446;-57
2023/01/15 06:52:02;;;;;;;28.92;10.15;;;;;;;-0.10;63.83;100449.19;5072394;28;20051;-55
2023/01/15 06:54:28;;;;;;;31.35;12.20;;;;;;;-0.09;64.16;100458.81;5072692;28;20097;-55
2023/01/15 06:56:53;;;;;;;33.55;11.65;;;;;;;-0.10;64.10;100459.69;5072905;28;20029;-59
2023/01/15 06:59:20;;;;;;;31.83;12.05;;;;;;;-0.10;63.84;100460.59;5072395;28;20024;-57
2023/01/15 07:01:45;;;;;;;38.40;11.88;;;;;;;-0.15;64.65;100452.78;5072390;28;20090;-57
2023/01/15 07:04:11;;;;;;;30.60;11.90;;;;;;;-0.15;64.76;100452.78;5072478;28;20024;-55
2023/01/15 07:06:37;;;;;;;35.72;11.25;;;;;;;-0.12;64.08;100440.47;5072463;28;20033;-59
2023/01/15 07:09:02;;;;;;;36.63;12.45;;;;;;;-0.14;64.26;100445.75;5070867;28;20361;-56
2023/01/15 07:11:28;;;;;;;36.67;11.63;;;;;;;-0.13;64.58;100446.63;5072229;28;20453;-59
2023/01/15 07:14:04;;;;;;;28.58;11.25;;;;;;;-0.07;64.24;100451.72;5071856;28;20048;-62
2023/01/15 07:16:35;;;;;;;30.00;11.73;;;;;;;-0.03;64.35;100456.00;5072749;28;20033;-57
2023/01/15 07:19:02;;;;;;;31.63;11.70;;;;;;;-0.01;63.79;100444.53;5072175;28;20063;-52
2023/01/15 07:21:28;;;;;;;28.85;11.27;;;;;;;0.06;63.92;100445.25;5072020;28;20070;-52
2023/01/15 07:23:57;;;;;;;31.33;12.77;;;;;;;0.01;64.16;100448.88;5072478;28;20036;-68
2023/01/15 07:26:22;;;;;;;25.35;11.57;;;;;;;0.05;63.85;100440.88;5072471;28;20456;-60
2023/01/15 07:28:48;;;;;;;36.40;11.77;;;;;;;0.08;63.86;100456.59;5072420;28;20044;-56
2023/01/15 07:31:13;;;;;;;34.40;11.88;;;;;;;0.13;63.83;100461.75;5071857;28;20036;-55
2023/01/15 07:33:39;;;;;;;30.15;11.40;;;;;;;0.15;63.92;100459.94;5072045;28;20094;-59
2023/01/15 07:36:05;;;;;;;31.65;11.32;;;;;;;0.19;63.94;100456.31;5072315;28;20117;-57
2023/01/15 07:38:30;;;;;;;24.70;11.35;;;;;;;0.11;63.71;100448.59;5072356;28;20033;-57
2023/01/15 07:51:56;;;;;;;39.47;12.57;;;;;;;0.14;63.32;100448.50;5075825;28;20032;-57
2023/01/15 07:54:22;;;;;;;28.98;12.30;;;;;;;0.14;63.47;100445.88;5076249;28;20031;-58
2023/01/15 07:56:49;;;;;;;30.67;13.25;;;;;;;0.20;63.21;100451.88;5075787;28;20020;-51
2023/01/15 07:59:14;;;;;;;28.88;12.38;;;;;;;-0.01;63.43;100414.69;5075262;28;20037;-52
2023/01/15 08:01:40;;;;;;;31.13;12.38;;;;;;;0.03;62.65;100408.47;5075720;28;20051;-52
2023/01/15 08:04:05;;;;;;;33.65;12.50;;;;;;;0.27;62.83;100441.13;5075504;28;20090;-52
2023/01/15 08:06:31;;;;;;;36.90;13.05;;;;;;;0.27;63.19;100422.69;5075666;28;20054;-50
2023/01/15 08:08:56;;;;;;;36.55;11.95;;;;;;;0.42;62.72;100441.63;5075879;28;20020;-61
2023/01/15 08:16:49;;;;;;;29.75;12.60;;;;;;;0.48;62.31;100427.38;5076269;28;20124;-50
2023/01/15 08:19:15;;;;;;;28.17;11.57;;;;;;;0.52;61.40;100431.69;5075335;28;20159;-54
2023/01/15 08:21:40;;;;;;;29.33;12.80;;;;;;;0.54;61.87;100424.59;5074208;28;20330;-57
2023/01/15 08:24:06;;;;;;;33.80;12.23;;;;;;;0.30;62.01;100400.69;5072634;28;20453;-51
2023/01/15 08:26:31;;;;;;;27.42;13.02;;;;;;;0.53;61.72;100431.63;5071361;28;20578;-59
2023/01/15 08:28:58;;;;;;;29.17;12.63;;;;;;;0.50;61.45;100433.50;5075023;28;20047;-65
2023/01/15 08:31:23;;;;;;;33.47;12.55;;;;;;;0.53;61.86;100443.94;5072417;28;20028;-55
2023/01/15 08:33:49;;;;;;;29.17;12.68;;;;;;;0.51;61.67;100437.88;5075131;28;20039;-58
2023/01/15 08:36:15;;;;;;;34.20;13.57;;;;;;;0.58;61.65;100444.69;5074499;28;20079;-55
2023/01/15 08:38:41;;;;;;;35.88;11.95;;;;;;;0.61;61.27;100434.03;5054676;28;20115;-49
2023/01/15 08:41:06;;;;;;;26.42;11.85;;;;;;;0.49;61.15;100426.50;5069236;28;20854;-56
2023/01/15 08:43:32;;;;;;;28.92;12.65;;;;;;;0.53;61.24;100430.78;5075388;28;20111;-56
2023/01/15 08:45:59;;;;;;;29.20;12.95;;;;;;;0.62;61.32;100441.03;5073137;28;20033;-61
2023/01/15 08:48:26;;;;;;;27.52;12.23;;;;;;;0.47;61.67;100437.06;5074669;28;20049;-56
2023/01/15 08:50:51;;;;;;;28.08;12.30;;;;;;;0.47;61.45;100441.47;5074052;28;20040;-55
2023/01/15 08:53:18;;;;;;;26.77;13.07;;;;;;;0.51;61.54;100435.22;5075068;28;20033;-53
2023/01/15 08:55:44;;;;;;;33.55;12.35;;;;;;;0.49;61.63;100437.91;5074473;28;20032;-57
2023/01/15 08:58:10;;;;;;;27.55;12.50;;;;;;;0.43;61.11;100425.75;5073258;28;20430;-52
2023/01/15 09:00:35;;;;;;;27.50;12.20;;;;;;;0.47;61.61;100433.56;5071488;28;20060;-61
2023/01/15 09:03:01;;;;;;;30.58;12.98;;;;;;;0.49;61.72;100426.50;5073161;28;20043;-66
2023/01/15 09:05:29;;;;;;;29.90;13.15;;;;;;;0.48;61.49;100419.47;5073781;28;20039;-66
2023/01/15 09:07:55;;;;;;;28.83;12.50;;;;;;;0.57;61.32;100420.06;5073973;28;20036;-57
2023/01/15 09:10:21;;;;;;;38.53;12.63;;;;;;;0.56;60.80;100417.50;5073724;28;20043;-53
2023/01/15 09:12:47;;;;;;;25.67;12.15;;;;;;;0.61;60.83;100415.59;5072591;28;20033;-55
2023/01/15 09:15:13;;;;;;;28.70;12.07;;;;;;;0.61;60.79;100418.22;5074005;28;20055;-55
2023/01/15 09:17:39;;;;;;;34.28;12.23;;;;;;;0.61;61.00;100412.97;5072858;28;20028;-56
2023/01/15 09:20:11;;;;;;;29.75;12.52;;;;;;;0.71;60.94;100419.66;5073532;28;20032;-54
2023/01/15 09:22:36;;;;;;;29.88;12.27;;;;;;;0.71;60.47;100416.19;5074548;28;20353;-55
2023/01/15 09:25:02;;;;;;;26.10;12.13;;;;;;;0.71;60.41;100403.84;5074416;28;20024;-61
2023/01/15 09:27:29;;;;;;;25.60;12.45;;;;;;;0.89;60.83;100425.28;5063314;28;20124;-56
2023/01/15 09:29:55;;;;;;;33.00;13.73;;;;;;;0.97;59.98;100423.31;5074414;28;20037;-60
2023/01/15 09:32:21;;;;;;;27.75;12.98;;;;;;;0.91;60.23;100412.06;5074415;28;20417;-54
2023/01/15 09:34:47;;;;;;;27.90;12.10;;;;;;;0.92;60.14;100419.06;5072544;28;20528;-55
2023/01/15 09:37:12;;;;;;;25.95;12.45;;;;;;;0.95;60.64;100413.69;5073784;28;20123;-55
2023/01/15 09:39:38;;;;;;;25.42;10.93;;;;;;;1.00;59.70;100411.78;5073609;28;20063;-55
2023/01/15 09:42:32;;;;;;;27.10;12.38;;;;;;;1.05;60.25;100409.00;5073422;28;20068;-55
2023/01/15 09:45:15;;;;;;;26.90;11.70;;;;;;;0.82;60.38;100379.78;5074068;28;20032;-52
2023/01/15 09:47:53;;;;;;;29.63;11.70;;;;;;;0.93;60.19;100403.19;5073201;28;20506;-52
2023/01/15 09:50:39;;;;;;;28.05;12.43;;;;;;;0.93;59.99;100399.72;5073595;28;20083;-55
2023/01/15 09:53:23;;;;;;;29.27;11.80;;;;;;;0.89;60.06;100409.47;5073807;28;20055;-55
2023/01/15 09:55:49;;;;;;;29.25;12.88;;;;;;;0.82;60.27;100394.78;5073756;28;20668;-53
2023/01/15 09:58:18;;;;;;;29.92;12.30;;;;;;;0.86;60.40;100404.31;5073929;28;20070;-56
2023/01/15 10:00:50;;;;;;;23.20;12.38;;;;;;;0.85;60.55;100406.09;5073021;28;20477;-53
2023/01/15 10:03:43;;;;;;;30.75;11.88;;;;;;;0.92;60.08;100414.66;5073697;28;20036;-54
2023/01/15 10:06:26;;;;;;;23.27;11.32;;;;;;;0.92;60.39;100411.16;5072626;28;20105;-52
2023/01/15 10:09:18;;;;;;;35.53;13.18;;;;;;;0.93;60.63;100400.56;5072936;28;20047;-55
2023/01/15 10:14:40;;;;;;;25.65;11.60;;;;;;;1.00;59.88;100410.03;5073284;28;20052;-54
2023/01/15 10:17:19;;;;;;;27.90;11.73;;;;;;;1.06;60.05;100411.56;5072963;28;20448;-54
2023/01/15 10:19:45;;;;;;;28.02;11.27;;;;;;;0.96;60.26;100411.00;5072421;28;20032;-56
2023/01/15 10:22:32;;;;;;;28.08;10.65;;;;;;;0.99;59.89;100405.66;5073209;28;20033;-59
2023/01/15 10:24:57;;;;;;;24.55;10.60;;;;;;;0.89;59.99;100409.47;5073181;28;20036;-56
2023/01/15 10:27:31;;;;;;;25.08;11.30;;;;;;;0.91;60.12;100398.91;5073315;28;20399;-54
2023/01/15 10:30:21;;;;;;;26.45;10.43;;;;;;;0.92;60.37;100392.72;5072849;28;20032;-55
2023/01/15 10:32:54;;;;;;;26.83;10.50;;;;;;;0.89;59.65;100403.34;5072638;28;20503;-55
2023/01/15 10:35:40;;;;;;;22.50;10.43;;;;;;;0.93;60.05;100387.38;5072904;28;20074;-53
2023/01/15 10:38:17;;;;;;;25.00;10.63;;;;;;;0.88;59.94;100394.56;5072256;28;20052;-57
2023/01/15 10:40:52;;;;;;;18.85;10.10;;;;;;;0.93;59.76;100400.56;5072272;28;20100;-55
2023/01/15 10:43:30;;;;;;;26.95;11.27;;;;;;;0.99;59.26;100389.84;5069906;28;20044;-54
2023/01/15 10:45:59;;;;;;;21.08;10.77;;;;;;;0.97;59.67;100389.03;5071361;28;20036;-51
2023/01/15 10:48:45;;;;;;;21.85;10.23;;;;;;;1.07;60.11;100375.53;5071614;28;20028;-56
2023/01/15 10:51:25;;;;;;;21.08;10.02;;;;;;;1.08;59.64;100369.34;5071148;28;20082;-50
2023/01/15 10:54:13;;;;;;;21.50;10.43;;;;;;;1.12;59.54;100379.75;5071932;28;20032;-50
2023/01/15 10:56:44;;;;;;;21.23;9.75;;;;;;;1.18;58.82;100375.19;5072348;28;20048;-52
2023/01/15 10:59:32;;;;;;;24.00;9.80;;;;;;;1.19;59.39;100367.19;5071326;28;20047;-49
2023/01/15 11:01:58;;;;;;;24.65;9.65;;;;;;;1.07;59.50;100371.09;5072089;28;20036;-51
2023/01/15 11:04:28;;;;;;;18.48;9.00;;;;;;;1.18;58.71;100370.75;5072396;28;20024;-49
2023/01/15 11:06:53;;;;;;;21.85;8.93;;;;;;;1.18;58.63;100352.28;5072472;28;20043;-53
2023/01/15 11:09:21;;;;;;;23.45;9.77;;;;;;;1.14;58.76;100361.22;5071942;28;20033;-53
2023/01/15 11:20:24;;;;;;;24.88;9.93;;;;;;;1.05;59.14;100362.38;5071765;28;20040;-54
2023/01/15 11:22:49;;;;;;;24.05;9.52;;;;;;;1.04;58.71;100344.00;5071434;28;20079;-53
2023/01/15 11:25:28;;;;;;;20.80;9.30;;;;;;;1.12;58.81;100342.84;5070725;28;20037;-57
2023/01/15 11:27:54;;;;;;;22.83;8.80;;;;;;;1.03;58.00;100326.44;5071152;28;20029;-57
2023/01/15 11:30:32;;;;;;;24.48;9.45;;;;;;;1.09;59.13;100355.25;5071875;28;20040;-62
2023/01/15 11:33:02;;;;;;;19.50;8.93;;;;;;;1.07;58.81;100343.88;5072039;28;20029;-62
2023/01/15 11:35:29;;;;;;;23.15;9.07;;;;;;;1.03;58.45;100337.00;5072064;28;20048;-63
2023/01/15 11:38:02;;;;;;;22.58;8.55;;;;;;;1.09;58.92;100331.50;5071700;28;20115;-58
2023/01/15 11:40:27;;;;;;;21.85;9.32;;;;;;;0.99;58.47;100337.09;5071852;28;20032;-58
2023/01/15 11:51:40;;;;;;;18.15;8.20;;;;;;;1.09;58.44;100331.50;5071693;28;20056;-58
2023/01/15 11:54:11;;;;;;;18.75;8.48;;;;;;;1.18;57.61;100325.91;5072106;28;20066;-55
2023/01/15 11:56:40;;;;;;;14.18;7.20;;;;;;;1.02;58.53;100322.09;5071682;28;20120;-55
2023/01/15 11:59:11;;;;;;;16.05;8.15;;;;;;;1.02;58.34;100322.09;5071891;28;20033;-59
2023/01/15 12:01:48;;;;;;;21.63;8.57;;;;;;;1.04;58.94;100320.25;5071758;28;20039;-63
2023/01/15 12:04:25;;;;;;;19.30;8.05;;;;;;;1.12;58.15;100311.19;5065642;28;20032;-60
2023/01/15 12:06:51;;;;;;;21.90;8.70;;;;;;;1.10;58.02;100318.28;5070588;28;20037;-60
2023/01/15 12:09:35;;;;;;;17.77;8.02;;;;;;;1.10;58.06;100318.28;5071590;28;20037;-61
2023/01/15 12:12:15;;;;;;;18.77;8.25;;;;;;;0.96;57.91;100308.16;5071377;28;20526;-54
2023/01/15 12:15:22;;;;;;;19.25;7.70;;;;;;;0.98;58.40;100309.00;5071414;28;20033;-56
2023/01/15 12:18:07;;;;;;;;;;;;;;;1.32;57.72;100332.50;5050127;28;20041;-54
2023/01/15 12:20:48;;;;;;;17.30;7.38;;;;;;;1.16;57.75;100333.03;5062533;28;19917;-53